sensor_id;sensor_type;location;lat;lon;timestamp;pressure;altitude;pressure_sealevel;temperature;humidity
36598;BME280;22607;49.550;11.940;2023-02-15T00:00:18;98350.09;;;0.36;100.00
36598;BME280;22607;49.550;11.940;2023-02-15T00:02:45;98346.25;;;0.26;100.00
36598;BME280;22607;49.550;11.940;2023-02-15T00:05:11;98341.31;;;0.21;100.00
36598;BME280;22607;49.550;11.940;2023-02-15T00:07:39;98341.66;;;0.33;100.00
36598;BME280;22607;49.550;11.940;2023-02-15T00:10:06;98340.03;;;0.30;100.00
36598;BME280;22607;49.550;11.940;2023-02-15T00:12:49;98344.38;;;0.30;100.00
36598;BME280;22607;49.550;11.940;2023-02-15T00:15:24;98331.78;;;0.22;100.00
36598;BME280;22607;49.550;11.940;2023-02-15T00:17:54;98335.31;;;0.40;100.00
36598;BME280;22607;49.550;11.940;2023-02-15T00:20:22;98322.63;;;0.34;100.00
36598;BME280;22607;49.550;11.940;2023-02-15T00:22:50;98323.69;;;0.30;100.00
36598;BME280;22607;49.550;11.940;2023-02-15T00:25:18;98319.34;;;0.11;100.00
36598;BME280;22607;49.550;11.940;2023-02-15T00:27:46;98317.91;;;0.24;100.00
36598;BME280;22607;49.550;11.940;2023-02-15T00:30:14;98322.72;;;0.13;100.00
36598;BME280;22607;49.550;11.940;2023-02-15T00:32:41;98326.91;;;0.16;100.00
36598;BME280;22607;49.550;11.940;2023-02-15T00:35:07;98323.84;;;0.27;100.00
36598;BME280;22607;49.550;11.940;2023-02-15T00:37:41;98325.66;;;0.05;100.00
36598;BME280;22607;49.550;11.940;2023-02-15T00:40:15;98318.97;;;0.01;100.00
36598;BME280;22607;49.550;11.940;2023-02-15T00:42:42;98313.94;;;0.17;100.00
36598;BME280;22607;49.550;11.940;2023-02-15T00:45:15;98321.31;;;0.06;100.00
36598;BME280;22607;49.550;11.940;2023-02-15T00:47:42;98321.31;;;0.06;100.00
36598;BME280;22607;49.550;11.940;2023-02-15T00:50:09;98322.56;;;0.16;100.00
36598;BME280;22607;49.550;11.940;2023-02-15T00:52:36;98321.19;;;0.09;100.00
36598;BME280;22607;49.550;11.940;2023-02-15T00:55:02;98325.44;;;0.10;100.00
36598;BME280;22607;49.550;11.940;2023-02-15T00:57:29;98310.63;;;0.13;100.00
36598;BME280;22607;49.550;11.940;2023-02-15T00:59:56;98312.72;;;0.24;100.00
36598;BME280;22607;49.550;11.940;2023-02-15T01:02:22;98314.50;;;0.24;100.00
36598;BME280;22607;49.550;11.940;2023-02-15T01:04:49;98312.53;;;0.10;100.00
36598;BME280;22607;49.550;11.940;2023-02-15T01:07:16;98302.88;;;-0.06;100.00
36598;BME280;22607;49.550;11.940;2023-02-15T01:09:42;98305.06;;;0.04;100.00
36598;BME280;22607;49.550;11.940;2023-02-15T01:12:09;98300.59;;;0.07;100.00
36598;BME280;22607;49.550;11.940;2023-02-15T01:14:35;98300.31;;;-0.06;100.00
36598;BME280;22607;49.550;11.940;2023-02-15T01:17:02;98287.09;;;0.20;100.00
36598;BME280;22607;49.550;11.940;2023-02-15T01:19:28;98306.66;;;0.25;100.00
36598;BME280;22607;49.550;11.940;2023-02-15T01:21:57;98293.81;;;0.24;100.00
36598;BME280;22607;49.550;11.940;2023-02-15T01:24:23;98291.72;;;0.13;100.00
36598;BME280;22607;49.550;11.940;2023-02-15T01:26:55;98287.50;;;0.30;100.00
36598;BME280;22607;49.550;11.940;2023-02-15T01:29:21;98289.34;;;0.28;100.00
36598;BME280;22607;49.550;11.940;2023-02-15T01:31:48;98292.34;;;0.18;100.00
36598;BME280;22607;49.550;11.940;2023-02-15T01:34:15;98286.00;;;0.06;100.00
36598;BME280;22607;49.550;11.940;2023-02-15T01:36:41;98298.56;;;0.14;100.00
36598;BME280;22607;49.550;11.940;2023-02-15T01:39:08;98282.94;;;0.17;100.00
36598;BME280;22607;49.550;11.940;2023-02-15T01:41:35;98278.56;;;0.18;100.00
36598;BME280;22607;49.550;11.940;2023-02-15T01:44:03;98283.13;;;-0.07;100.00
36598;BME280;22607;49.550;11.940;2023-02-15T01:46:34;98285.22;;;0.04;100.00
36598;BME280;22607;49.550;11.940;2023-02-15T01:49:07;98272.03;;;0.10;100.00
36598;BME280;22607;49.550;11.940;2023-02-15T01:51:43;98274.25;;;0.18;100.00
36598;BME280;22607;49.550;11.940;2023-02-15T01:54:14;98266.66;;;-0.04;100.00
36598;BME280;22607;49.550;11.940;2023-02-15T01:56:44;98263.09;;;-0.02;100.00
36598;BME280;22607;49.550;11.940;2023-02-15T01:59:18;98257.16;;;-0.04;100.00
36598;BME280;22607;49.550;11.940;2023-02-15T02:01:46;98260.50;;;-0.02;100.00
36598;BME280;22607;49.550;11.940;2023-02-15T02:07:21;98247.53;;;0.00;100.00
36598;BME280;22607;49.550;11.940;2023-02-15T02:10:04;98240.91;;;-0.06;100.00
36598;BME280;22607;49.550;11.940;2023-02-15T02:12:31;98246.47;;;-0.15;100.00
36598;BME280;22607;49.550;11.940;2023-02-15T02:14:58;98244.94;;;-0.19;100.00
36598;BME280;22607;49.550;11.940;2023-02-15T02:27:05;98236.41;;;-0.02;100.00
36598;BME280;22607;49.550;11.940;2023-02-15T02:29:56;98232.91;;;-0.01;100.00
36598;BME280;22607;49.550;11.940;2023-02-15T02:43:33;98223.59;;;-0.23;100.00
36598;BME280;22607;49.550;11.940;2023-02-15T02:46:17;98218.44;;;-0.23;100.00
36598;BME280;22607;49.550;11.940;2023-02-15T02:48:48;98209.78;;;-0.22;100.00
36598;BME280;22607;49.550;11.940;2023-02-15T02:51:15;98210.03;;;-0.09;100.00
36598;BME280;22607;49.550;11.940;2023-02-15T02:53:53;98208.78;;;-0.19;100.00
36598;BME280;22607;49.550;11.940;2023-02-15T02:56:24;98204.88;;;-0.09;100.00
36598;BME280;22607;49.550;11.940;2023-02-15T02:59:20;98209.97;;;-0.27;100.00
36598;BME280;22607;49.550;11.940;2023-02-15T03:01:57;98204.88;;;-0.28;100.00
36598;BME280;22607;49.550;11.940;2023-02-15T03:04:34;98200.41;;;-0.24;100.00
36598;BME280;22607;49.550;11.940;2023-02-15T03:07:08;98198.94;;;-0.11;100.00
36598;BME280;22607;49.550;11.940;2023-02-15T03:09:39;98193.59;;;-0.25;100.00
36598;BME280;22607;49.550;11.940;2023-02-15T03:12:22;98192.31;;;-0.36;100.00
36598;BME280;22607;49.550;11.940;2023-02-15T03:15:03;98192.59;;;-0.23;100.00
36598;BME280;22607;49.550;11.940;2023-02-15T03:17:32;98198.16;;;-0.13;100.00
36598;BME280;22607;49.550;11.940;2023-02-15T03:20:03;98194.69;;;-0.31;100.00
36598;BME280;22607;49.550;11.940;2023-02-15T03:22:33;98189.09;;;-0.41;100.00
36598;BME280;22607;49.550;11.940;2023-02-15T03:25:20;98198.16;;;-0.13;100.00
36598;BME280;22607;49.550;11.940;2023-02-15T03:27:55;98193.78;;;-0.11;100.00
36598;BME280;22607;49.550;11.940;2023-02-15T03:30:29;98193.69;;;-0.09;100.00
36598;BME280;22607;49.550;11.940;2023-02-15T03:33:19;98191.50;;;-0.36;100.00
36598;BME280;22607;49.550;11.940;2023-02-15T03:39:32;98198.16;;;-0.51;100.00
36598;BME280;22607;49.550;11.940;2023-02-15T03:47:27;98188.69;;;-0.32;100.00
36598;BME280;22607;49.550;11.940;2023-02-15T03:50:03;98194.41;;;-0.25;100.00
36598;BME280;22607;49.550;11.940;2023-02-15T03:52:52;98192.00;;;-0.10;100.00
36598;BME280;22607;49.550;11.940;2023-02-15T03:55:20;98187.22;;;-0.18;100.00
36598;BME280;22607;49.550;11.940;2023-02-15T03:57:47;98188.25;;;-0.22;100.00
36598;BME280;22607;49.550;11.940;2023-02-15T04:00:36;98185.25;;;-0.13;100.00
36598;BME280;22607;49.550;11.940;2023-02-15T04:03:30;98193.56;;;-0.06;100.00
36598;BME280;22607;49.550;11.940;2023-02-15T04:06:01;98189.59;;;-0.14;100.00
36598;BME280;22607;49.550;11.940;2023-02-15T04:08:29;98187.84;;;-0.13;100.00
36598;BME280;22607;49.550;11.940;2023-02-15T04:11:14;98191.19;;;-0.11;100.00
36598;BME280;22607;49.550;11.940;2023-02-15T04:13:42;98192.19;;;-0.33;100.00
36598;BME280;22607;49.550;11.940;2023-02-15T04:16:09;98190.47;;;-0.15;100.00
36598;BME280;22607;49.550;11.940;2023-02-15T04:18:42;98190.09;;;-0.24;100.00
36598;BME280;22607;49.550;11.940;2023-02-15T04:21:30;98193.28;;;-0.38;100.00
36598;BME280;22607;49.550;11.940;2023-02-15T04:24:16;98206.03;;;-0.55;100.00
36598;BME280;22607;49.550;11.940;2023-02-15T04:27:16;98206.72;;;-0.70;100.00
36598;BME280;22607;49.550;11.940;2023-02-15T04:29:43;98190.50;;;-0.53;100.00
36598;BME280;22607;49.550;11.940;2023-02-15T04:32:09;98192.44;;;-0.58;100.00
36598;BME280;22607;49.550;11.940;2023-02-15T04:34:36;98201.19;;;-0.42;100.00
36598;BME280;22607;49.550;11.940;2023-02-15T04:37:02;98202.78;;;-0.39;100.00
36598;BME280;22607;49.550;11.940;2023-02-15T04:39:29;98204.34;;;-0.35;100.00
36598;BME280;22607;49.550;11.940;2023-02-15T04:41:55;98196.59;;;-0.35;100.00
36598;BME280;22607;49.550;11.940;2023-02-15T04:44:22;98196.38;;;-0.30;100.00
36598;BME280;22607;49.550;11.940;2023-02-15T04:46:49;98194.00;;;-0.35;100.00
36598;BME280;22607;49.550;11.940;2023-02-15T04:49:17;98205.84;;;-0.50;100.00
36598;BME280;22607;49.550;11.940;2023-02-15T04:51:44;98198.84;;;-0.09;100.00
36598;BME280;22607;49.550;11.940;2023-02-15T04:54:10;98201.03;;;-0.19;100.00
36598;BME280;22607;49.550;11.940;2023-02-15T04:56:37;98204.59;;;-0.41;100.00
36598;BME280;22607;49.550;11.940;2023-02-15T04:59:05;98203.75;;;-0.61;100.00
36598;BME280;22607;49.550;11.940;2023-02-15T05:01:35;98208.69;;;-0.75;100.00
36598;BME280;22607;49.550;11.940;2023-02-15T05:04:07;98206.03;;;-0.74;100.00
36598;BME280;22607;49.550;11.940;2023-02-15T05:06:34;98207.97;;;-0.39;100.00
36598;BME280;22607;49.550;11.940;2023-02-15T05:09:02;98196.00;;;-0.22;100.00
36598;BME280;22607;49.550;11.940;2023-02-15T05:11:29;98194.00;;;-0.35;100.00
36598;BME280;22607;49.550;11.940;2023-02-15T05:13:55;98195.59;;;-0.13;100.00
36598;BME280;22607;49.550;11.940;2023-02-15T05:16:22;98197.00;;;-0.25;100.00
36598;BME280;22607;49.550;11.940;2023-02-15T05:18:48;98202.28;;;-0.28;100.00
36598;BME280;22607;49.550;11.940;2023-02-15T05:21:15;98203.53;;;-0.37;100.00
36598;BME280;22607;49.550;11.940;2023-02-15T05:23:42;98189.88;;;-0.39;100.00
36598;BME280;22607;49.550;11.940;2023-02-15T05:26:22;98201.66;;;-0.33;100.00
36598;BME280;22607;49.550;11.940;2023-02-15T05:29:08;98195.75;;;-0.35;100.00
36598;BME280;22607;49.550;11.940;2023-02-15T05:31:37;98195.09;;;-0.21;100.00
36598;BME280;22607;49.550;11.940;2023-02-15T05:34:04;98204.13;;;-0.11;100.00
36598;BME280;22607;49.550;11.940;2023-02-15T05:36:32;98206.69;;;-0.11;100.00
36598;BME280;22607;49.550;11.940;2023-02-15T05:38:58;98197.91;;;-0.07;100.00
36598;BME280;22607;49.550;11.940;2023-02-15T05:41:26;98202.16;;;-0.06;100.00
36598;BME280;22607;49.550;11.940;2023-02-15T05:43:55;98216.06;;;-0.08;100.00
36598;BME280;22607;49.550;11.940;2023-02-15T05:46:22;98208.22;;;-0.07;100.00
36598;BME280;22607;49.550;11.940;2023-02-15T05:48:48;98202.22;;;-0.07;100.00
36598;BME280;22607;49.550;11.940;2023-02-15T05:51:15;98206.53;;;-0.08;100.00
36598;BME280;22607;49.550;11.940;2023-02-15T05:53:42;98213.25;;;-0.23;100.00
36598;BME280;22607;49.550;11.940;2023-02-15T05:56:09;98215.19;;;-0.09;100.00
36598;BME280;22607;49.550;11.940;2023-02-15T05:58:41;98213.34;;;-0.24;100.00
36598;BME280;22607;49.550;11.940;2023-02-15T06:01:12;98218.97;;;-0.35;100.00
36598;BME280;22607;49.550;11.940;2023-02-15T06:03:40;98215.91;;;-0.44;100.00
36598;BME280;22607;49.550;11.940;2023-02-15T06:06:08;98220.66;;;-0.34;100.00
36598;BME280;22607;49.550;11.940;2023-02-15T06:08:37;98212.84;;;-0.14;100.00
36598;BME280;22607;49.550;11.940;2023-02-15T06:11:04;98213.41;;;-0.07;100.00
36598;BME280;22607;49.550;11.940;2023-02-15T06:13:32;98216.13;;;-0.48;100.00
36598;BME280;22607;49.550;11.940;2023-02-15T06:16:00;98199.41;;;-0.80;100.00
36598;BME280;22607;49.550;11.940;2023-02-15T06:18:28;98216.69;;;-0.42;100.00
36598;BME280;22607;49.550;11.940;2023-02-15T06:20:54;98211.91;;;-0.32;100.00
36598;BME280;22607;49.550;11.940;2023-02-15T06:23:20;98218.00;;;-0.33;100.00
36598;BME280;22607;49.550;11.940;2023-02-15T06:25:47;98220.72;;;-0.17;100.00
36598;BME280;22607;49.550;11.940;2023-02-15T06:28:14;98220.44;;;-0.49;100.00
36598;BME280;22607;49.550;11.940;2023-02-15T06:30:40;98219.22;;;-0.61;100.00
36598;BME280;22607;49.550;11.940;2023-02-15T06:33:07;98218.75;;;-0.31;100.00
36598;BME280;22607;49.550;11.940;2023-02-15T06:35:33;98226.22;;;-0.63;100.00
36598;BME280;22607;49.550;11.940;2023-02-15T06:38:05;98214.34;;;-0.67;100.00
36598;BME280;22607;49.550;11.940;2023-02-15T06:40:32;98226.22;;;-0.63;100.00
36598;BME280;22607;49.550;11.940;2023-02-15T06:42:58;98220.31;;;-0.67;100.00
36598;BME280;22607;49.550;11.940;2023-02-15T06:45:25;98212.06;;;-0.75;100.00
36598;BME280;22607;49.550;11.940;2023-02-15T06:47:58;98196.06;;;-0.62;100.00
36598;BME280;22607;49.550;11.940;2023-02-15T06:50:25;98215.19;;;-0.47;100.00
36598;BME280;22607;49.550;11.940;2023-02-15T06:52:58;98215.16;;;-0.67;100.00
36598;BME280;22607;49.550;11.940;2023-02-15T06:55:25;98212.75;;;-0.50;100.00
36598;BME280;22607;49.550;11.940;2023-02-15T06:57:52;98208.91;;;-0.61;100.00
36598;BME280;22607;49.550;11.940;2023-02-15T07:00:25;98200.25;;;-0.60;100.00
36598;BME280;22607;49.550;11.940;2023-02-15T07:02:57;98194.88;;;-0.74;100.00
36598;BME280;22607;49.550;11.940;2023-02-15T07:05:27;98196.75;;;-0.59;100.00
36598;BME280;22607;49.550;11.940;2023-02-15T07:07:58;98194.19;;;-0.59;100.00
36598;BME280;22607;49.550;11.940;2023-02-15T07:10:27;98191.75;;;-0.62;100.00
36598;BME280;22607;49.550;11.940;2023-02-15T07:12:53;98187.50;;;-0.63;100.00
36598;BME280;22607;49.550;11.940;2023-02-15T07:15:28;98188.66;;;-0.70;100.00
36598;BME280;22607;49.550;11.940;2023-02-15T07:17:57;98188.53;;;-0.67;100.00
36598;BME280;22607;49.550;11.940;2023-02-15T07:20:24;98188.09;;;-0.77;100.00
36598;BME280;22607;49.550;11.940;2023-02-15T07:22:59;98195.16;;;-0.61;100.00
36598;BME280;22607;49.550;11.940;2023-02-15T07:25:26;98193.13;;;-0.55;100.00
36598;BME280;22607;49.550;11.940;2023-02-15T07:28:03;98203.22;;;-0.48;100.00
36598;BME280;22607;49.550;11.940;2023-02-15T07:30:32;98204.09;;;-0.49;100.00
36598;BME280;22607;49.550;11.940;2023-02-15T07:32:58;98197.19;;;-0.49;100.00
36598;BME280;22607;49.550;11.940;2023-02-15T07:35:48;98192.19;;;-0.33;100.00
36598;BME280;22607;49.550;11.940;2023-02-15T07:38:15;98196.28;;;-0.48;100.00
36598;BME280;22607;49.550;11.940;2023-02-15T07:40:42;98194.53;;;-0.28;100.00
36598;BME280;22607;49.550;11.940;2023-02-15T07:43:13;98190.22;;;-0.28;100.00
36598;BME280;22607;49.550;11.940;2023-02-15T07:45:40;98185.75;;;-0.05;100.00
36598;BME280;22607;49.550;11.940;2023-02-15T07:48:07;98190.91;;;-0.24;100.00
36598;BME280;22607;49.550;11.940;2023-02-15T07:50:35;98185.59;;;-0.40;100.00
36598;BME280;22607;49.550;11.940;2023-02-15T07:53:02;98191.63;;;-0.20;100.00
36598;BME280;22607;49.550;11.940;2023-02-15T07:55:29;98189.31;;;-0.27;100.00
36598;BME280;22607;49.550;11.940;2023-02-15T07:57:56;98191.75;;;-0.23;100.00
36598;BME280;22607;49.550;11.940;2023-02-15T08:00:32;98184.56;;;-0.17;100.00
36598;BME280;22607;49.550;11.940;2023-02-15T08:03:19;98179.56;;;0.17;100.00
36598;BME280;22607;49.550;11.940;2023-02-15T08:05:46;98183.91;;;-0.03;100.00
36598;BME280;22607;49.550;11.940;2023-02-15T08:08:12;98178.13;;;-0.08;100.00
36598;BME280;22607;49.550;11.940;2023-02-15T08:13:44;98177.00;;;-0.21;100.00
36598;BME280;22607;49.550;11.940;2023-02-15T08:18:49;98178.28;;;-0.30;100.00
36598;BME280;22607;49.550;11.940;2023-02-15T08:21:25;98174.41;;;-0.39;100.00
36598;BME280;22607;49.550;11.940;2023-02-15T08:23:52;98164.81;;;-0.18;100.00
36598;BME280;22607;49.550;11.940;2023-02-15T08:26:19;98169.56;;;-0.08;100.00
36598;BME280;22607;49.550;11.940;2023-02-15T08:28:46;98168.09;;;-0.14;100.00
36598;BME280;22607;49.550;11.940;2023-02-15T08:31:13;98165.06;;;-0.05;100.00
36598;BME280;22607;49.550;11.940;2023-02-15T08:33:43;98161.16;;;0.23;100.00
36598;BME280;22607;49.550;11.940;2023-02-15T08:36:16;98169.75;;;-0.13;100.00
36598;BME280;22607;49.550;11.940;2023-02-15T08:38:43;98165.38;;;-0.11;100.00
36598;BME280;22607;49.550;11.940;2023-02-15T08:41:16;98166.00;;;-0.06;100.00
36598;BME280;22607;49.550;11.940;2023-02-15T08:43:50;98169.66;;;0.08;100.00
36598;BME280;22607;49.550;11.940;2023-02-15T08:46:17;98159.97;;;0.31;100.00
36598;BME280;22607;49.550;11.940;2023-02-15T08:48:45;98163.97;;;0.36;100.00
36598;BME280;22607;49.550;11.940;2023-02-15T08:51:15;98165.66;;;0.55;100.00
36598;BME280;22607;49.550;11.940;2023-02-15T08:53:46;98153.09;;;0.30;100.00
36598;BME280;22607;49.550;11.940;2023-02-15T08:56:16;98158.22;;;0.31;100.00
36598;BME280;22607;49.550;11.940;2023-02-15T08:58:44;98161.09;;;0.25;100.00
36598;BME280;22607;49.550;11.940;2023-02-15T09:01:12;98160.41;;;0.39;100.00
36598;BME280;22607;49.550;11.940;2023-02-15T09:03:39;98158.69;;;0.39;100.00
36598;BME280;22607;49.550;11.940;2023-02-15T09:06:06;98160.75;;;0.68;100.00
36598;BME280;22607;49.550;11.940;2023-02-15T09:08:32;98158.38;;;0.46;100.00
36598;BME280;22607;49.550;11.940;2023-02-15T09:11:29;98162.69;;;0.81;100.00
36598;BME280;22607;49.550;11.940;2023-02-15T09:13:58;98165.41;;;0.95;100.00
36598;BME280;22607;49.550;11.940;2023-02-15T09:16:28;98161.75;;;0.99;100.00
36598;BME280;22607;49.550;11.940;2023-02-15T09:18:55;98164.47;;;0.80;100.00
36598;BME280;22607;49.550;11.940;2023-02-15T09:21:25;98172.03;;;0.83;100.00
36598;BME280;22607;49.550;11.940;2023-02-15T09:23:56;98158.88;;;0.88;100.00
36598;BME280;22607;49.550;11.940;2023-02-15T09:26:28;98163.00;;;0.92;100.00
36598;BME280;22607;49.550;11.940;2023-02-15T09:28:58;98170.63;;;1.11;100.00
36598;BME280;22607;49.550;11.940;2023-02-15T09:31:29;98172.56;;;0.90;100.00
36598;BME280;22607;49.550;11.940;2023-02-15T09:33:58;98176.75;;;0.93;100.00
36598;BME280;22607;49.550;11.940;2023-02-15T09:36:37;98170.44;;;0.81;100.00
36598;BME280;22607;49.550;11.940;2023-02-15T09:39:15;98173.34;;;0.57;100.00
36598;BME280;22607;49.550;11.940;2023-02-15T09:47:25;98183.94;;;0.52;100.00
36598;BME280;22607;49.550;11.940;2023-02-15T09:50:19;98179.38;;;0.57;100.00
36598;BME280;22607;49.550;11.940;2023-02-15T09:53:16;98186.88;;;0.80;100.00
36598;BME280;22607;49.550;11.940;2023-02-15T10:09:21;98194.84;;;1.10;100.00
36598;BME280;22607;49.550;11.940;2023-02-15T10:26:44;98187.28;;;0.89;100.00
36598;BME280;22607;49.550;11.940;2023-02-15T10:28:51;98190.47;;;0.95;100.00
36598;BME280;22607;49.550;11.940;2023-02-15T10:37:01;98183.44;;;1.64;100.00
36598;BME280;22607;49.550;11.940;2023-02-15T10:42:28;98178.81;;;1.53;100.00
36598;BME280;22607;49.550;11.940;2023-02-15T10:53:31;98165.59;;;1.42;100.00
36598;BME280;22607;49.550;11.940;2023-02-15T10:56:20;98166.81;;;1.18;100.00
36598;BME280;22607;49.550;11.940;2023-02-15T10:59:03;98158.47;;;1.13;100.00
36598;BME280;22607;49.550;11.940;2023-02-15T11:01:34;98161.19;;;1.10;100.00
36598;BME280;22607;49.550;11.940;2023-02-15T11:07:15;98155.69;;;0.83;100.00
36598;BME280;22607;49.550;11.940;2023-02-15T11:09:51;98148.28;;;1.26;100.00
36598;BME280;22607;49.550;11.940;2023-02-15T11:12:24;98145.19;;;1.20;100.00
36598;BME280;22607;49.550;11.940;2023-02-15T11:17:45;98120.66;;;1.27;100.00
36598;BME280;22607;49.550;11.940;2023-02-15T11:23:14;98113.41;;;1.66;100.00
36598;BME280;22607;49.550;11.940;2023-02-15T11:25:52;98112.16;;;1.57;100.00
36598;BME280;22607;49.550;11.940;2023-02-15T11:28:31;98115.75;;;1.54;100.00
36598;BME280;22607;49.550;11.940;2023-02-15T11:31:02;98111.53;;;2.00;100.00
36598;BME280;22607;49.550;11.940;2023-02-15T11:33:40;98109.63;;;2.18;100.00
36598;BME280;22607;49.550;11.940;2023-02-15T11:36:11;98111.00;;;2.09;100.00
36598;BME280;22607;49.550;11.940;2023-02-15T11:38:39;98098.78;;;2.12;100.00
36598;BME280;22607;49.550;11.940;2023-02-15T11:41:11;98099.84;;;2.23;100.00
36598;BME280;22607;49.550;11.940;2023-02-15T11:43:43;98103.72;;;2.47;100.00
36598;BME280;22607;49.550;11.940;2023-02-15T11:46:12;98095.41;;;2.71;100.00
36598;BME280;22607;49.550;11.940;2023-02-15T11:48:39;98092.00;;;2.40;100.00
36598;BME280;22607;49.550;11.940;2023-02-15T11:51:11;98095.38;;;2.42;100.00
36598;BME280;22607;49.550;11.940;2023-02-15T11:53:43;98095.31;;;2.58;100.00
36598;BME280;22607;49.550;11.940;2023-02-15T11:56:15;98099.00;;;2.54;100.00
36598;BME280;22607;49.550;11.940;2023-02-15T11:58:56;98093.09;;;2.66;100.00
36598;BME280;22607;49.550;11.940;2023-02-15T12:01:27;98099.81;;;2.54;100.00
36598;BME280;22607;49.550;11.940;2023-02-15T12:04:06;98090.03;;;2.29;100.00
36598;BME280;22607;49.550;11.940;2023-02-15T12:06:45;98079.91;;;2.69;100.00
36598;BME280;22607;49.550;11.940;2023-02-15T12:09:49;98073.72;;;2.72;100.00
36598;BME280;22607;49.550;11.940;2023-02-15T12:12:29;98070.94;;;2.75;100.00
36598;BME280;22607;49.550;11.940;2023-02-15T12:15:06;98062.97;;;2.93;100.00
36598;BME280;22607;49.550;11.940;2023-02-15T12:17:34;98060.19;;;2.96;100.00
36598;BME280;22607;49.550;11.940;2023-02-15T12:20:28;98053.75;;;3.16;99.09
36598;BME280;22607;49.550;11.940;2023-02-15T12:23:02;98054.06;;;3.11;99.69
36598;BME280;22607;49.550;11.940;2023-02-15T12:25:42;98051.44;;;3.26;97.95
36598;BME280;22607;49.550;11.940;2023-02-15T12:28:37;98055.16;;;2.63;100.00
36598;BME280;22607;49.550;11.940;2023-02-15T12:31:32;98045.28;;;2.99;100.00
36598;BME280;22607;49.550;11.940;2023-02-15T12:34:01;98038.81;;;3.20;99.39
36598;BME280;22607;49.550;11.940;2023-02-15T12:36:40;98037.84;;;2.93;100.00
36598;BME280;22607;49.550;11.940;2023-02-15T12:41:57;98040.75;;;2.59;100.00
36598;BME280;22607;49.550;11.940;2023-02-15T12:44:35;98043.59;;;2.55;100.00
36598;BME280;22607;49.550;11.940;2023-02-15T12:49:33;98041.31;;;2.65;100.00
36598;BME280;22607;49.550;11.940;2023-02-15T12:52:03;98038.50;;;2.68;100.00
36598;BME280;22607;49.550;11.940;2023-02-15T12:54:41;98040.34;;;2.36;100.00
36598;BME280;22607;49.550;11.940;2023-02-15T12:57:23;98041.38;;;2.63;100.00
36598;BME280;22607;49.550;11.940;2023-02-15T13:02:52;98033.06;;;2.58;100.00
36598;BME280;22607;49.550;11.940;2023-02-15T13:07:50;98035.34;;;2.77;100.00
36598;BME280;22607;49.550;11.940;2023-02-15T13:10:29;98022.19;;;2.80;100.00
36598;BME280;22607;49.550;11.940;2023-02-15T13:12:57;98022.34;;;3.21;99.14
36598;BME280;22607;49.550;11.940;2023-02-15T13:15:28;98024.81;;;2.51;100.00
36598;BME280;22607;49.550;11.940;2023-02-15T13:17:59;98016.97;;;3.09;98.46
36598;BME280;22607;49.550;11.940;2023-02-15T13:20:27;98020.53;;;2.79;100.00
36598;BME280;22607;49.550;11.940;2023-02-15T13:23:03;98025.19;;;2.74;100.00
36598;BME280;22607;49.550;11.940;2023-02-15T13:26:02;98024.81;;;2.66;100.00
36598;BME280;22607;49.550;11.940;2023-02-15T13:28:40;98014.97;;;2.56;100.00
36598;BME280;22607;49.550;11.940;2023-02-15T13:31:13;98021.66;;;2.60;100.00
36598;BME280;22607;49.550;11.940;2023-02-15T13:33:44;98009.78;;;2.71;100.00
36598;BME280;22607;49.550;11.940;2023-02-15T13:36:26;98003.88;;;2.69;100.00
36598;BME280;22607;49.550;11.940;2023-02-15T13:50:48;98007.53;;;2.21;100.00
36598;BME280;22607;49.550;11.940;2023-02-15T14:01:52;98003.75;;;2.27;100.00
36598;BME280;22607;49.550;11.940;2023-02-15T14:09:56;97996.97;;;2.09;100.00
36598;BME280;22607;49.550;11.940;2023-02-15T14:24:36;98015.19;;;2.08;100.00
36598;BME280;22607;49.550;11.940;2023-02-15T14:30:12;98010.31;;;2.18;100.00
36598;BME280;22607;49.550;11.940;2023-02-15T14:32:53;98015.09;;;1.95;100.00
36598;BME280;22607;49.550;11.940;2023-02-15T14:35:24;98017.19;;;1.57;100.00
36598;BME280;22607;49.550;11.940;2023-02-15T14:43:27;98018.31;;;1.68;100.00
36598;BME280;22607;49.550;11.940;2023-02-15T14:48:39;98019.03;;;1.86;100.00
36598;BME280;22607;49.550;11.940;2023-02-15T14:51:08;98015.56;;;1.71;100.00
36598;BME280;22607;49.550;11.940;2023-02-15T14:53:37;98008.16;;;2.10;100.00
36598;BME280;22607;49.550;11.940;2023-02-15T14:58:37;98004.44;;;1.69;100.00
36598;BME280;22607;49.550;11.940;2023-02-15T15:01:07;98004.00;;;1.77;100.00
36598;BME280;22607;49.550;11.940;2023-02-15T15:03:35;98002.28;;;1.92;100.00
36598;BME280;22607;49.550;11.940;2023-02-15T15:06:03;98000.88;;;1.86;100.00
36598;BME280;22607;49.550;11.940;2023-02-15T15:08:38;98004.63;;;1.66;100.00
36598;BME280;22607;49.550;11.940;2023-02-15T15:14:09;98011.88;;;1.75;100.00
36598;BME280;22607;49.550;11.940;2023-02-15T15:19:11;97997.00;;;1.32;100.00
36598;BME280;22607;49.550;11.940;2023-02-15T15:50:21;97990.50;;;1.09;100.00
36598;BME280;22607;49.550;11.940;2023-02-15T15:52:53;97985.50;;;1.06;100.00
36598;BME280;22607;49.550;11.940;2023-02-15T15:55:22;97989.81;;;1.05;100.00
36598;BME280;22607;49.550;11.940;2023-02-15T15:57:58;97984.72;;;1.20;100.00
36598;BME280;22607;49.550;11.940;2023-02-15T16:02:58;97980.47;;;1.35;100.00
36598;BME280;22607;49.550;11.940;2023-02-15T16:05:34;97992.41;;;1.21;100.00
36598;BME280;22607;49.550;11.940;2023-02-15T16:08:01;97984.97;;;1.47;100.00
36598;BME280;22607;49.550;11.940;2023-02-15T16:10:29;97985.34;;;1.55;100.00
36598;BME280;22607;49.550;11.940;2023-02-15T16:12:58;97975.13;;;1.38;100.00
36598;BME280;22607;49.550;11.940;2023-02-15T16:15:45;97976.13;;;1.19;100.00
36598;BME280;22607;49.550;11.940;2023-02-15T16:18:16;97979.81;;;1.15;100.00
36598;BME280;22607;49.550;11.940;2023-02-15T16:20:50;97988.22;;;1.51;100.00
36598;BME280;22607;49.550;11.940;2023-02-15T16:26:35;97993.41;;;1.35;100.00
36598;BME280;22607;49.550;11.940;2023-02-15T16:29:25;97985.81;;;1.31;100.00